sensor_id;sensor_type;location;lat;lon;timestamp;pressure;altitude;pressure_sealevel;temperature;humidity
60611;BME280;46439;51.164;13.572;2023-10-19T00:01:12;98800.69;;;10.55;100.00
60611;BME280;46439;51.164;13.572;2023-10-19T00:03:42;98798.95;;;10.56;100.00
60611;BME280;46439;51.164;13.572;2023-10-19T00:06:33;98792.97;;;10.52;100.00
60611;BME280;46439;51.164;13.572;2023-10-19T00:09:04;98790.48;;;10.56;100.00
60611;BME280;46439;51.164;13.572;2023-10-19T00:11:41;98784.38;;;10.59;100.00
60611;BME280;46439;51.164;13.572;2023-10-19T00:14:12;98782.27;;;10.56;100.00
60611;BME280;46439;51.164;13.572;2023-10-19T00:16:46;98783.52;;;10.52;100.00
60611;BME280;46439;51.164;13.572;2023-10-19T00:19:30;98792.31;;;10.56;100.00
60611;BME280;46439;51.164;13.572;2023-10-19T00:22:00;98800.95;;;10.57;100.00
60611;BME280;46439;51.164;13.572;2023-10-19T00:24:38;98800.95;;;10.63;100.00
60611;BME280;46439;51.164;13.572;2023-10-19T00:27:12;98795.88;;;10.63;100.00
60611;BME280;46439;51.164;13.572;2023-10-19T00:29:51;98788.09;;;10.65;100.00
60611;BME280;46439;51.164;13.572;2023-10-19T00:32:24;98791.13;;;10.68;100.00
60611;BME280;46439;51.164;13.572;2023-10-19T00:34:57;98786.84;;;10.69;100.00
60611;BME280;46439;51.164;13.572;2023-10-19T00:37:39;98784.25;;;10.69;100.00
60611;BME280;46439;51.164;13.572;2023-10-19T00:40:14;98781.65;;;10.69;100.00
60611;BME280;46439;51.164;13.572;2023-10-19T00:42:56;98769.97;;;10.71;100.00
60611;BME280;46439;51.164;13.572;2023-10-19T00:45:29;98767.61;;;10.75;100.00
60611;BME280;46439;51.164;13.572;2023-10-19T00:48:09;98764.98;;;10.75;100.00
60611;BME280;46439;51.164;13.572;2023-10-19T00:50:42;98764.30;;;10.74;100.00
60611;BME280;46439;51.164;13.572;2023-10-19T00:53:14;98764.11;;;10.77;100.00
60611;BME280;46439;51.164;13.572;2023-10-19T00:55:46;98764.23;;;10.79;100.00
60611;BME280;46439;51.164;13.572;2023-10-19T00:58:31;98757.67;;;10.81;100.00
60611;BME280;46439;51.164;13.572;2023-10-19T01:01:04;98754.44;;;10.69;100.00
60611;BME280;46439;51.164;13.572;2023-10-19T01:03:35;98750.46;;;10.57;100.00
60611;BME280;46439;51.164;13.572;2023-10-19T01:06:08;98755.15;;;10.53;100.00
60611;BME280;46439;51.164;13.572;2023-10-19T01:08:45;98748.30;;;10.50;100.00
60611;BME280;46439;51.164;13.572;2023-10-19T01:11:15;98747.06;;;10.53;100.00
60611;BME280;46439;51.164;13.572;2023-10-19T01:13:48;98741.13;;;10.55;100.00
60611;BME280;46439;51.164;13.572;2023-10-19T01:16:17;98734.85;;;10.58;100.00
60611;BME280;46439;51.164;13.572;2023-10-19T01:18:51;98725.38;;;10.71;100.00
60611;BME280;46439;51.164;13.572;2023-10-19T01:21:25;98725.13;;;10.75;100.00
60611;BME280;46439;51.164;13.572;2023-10-19T01:24:08;98721.30;;;10.77;100.00
60611;BME280;46439;51.164;13.572;2023-10-19T01:26:40;98713.19;;;10.80;100.00
60611;BME280;46439;51.164;13.572;2023-10-19T01:29:14;98710.09;;;10.79;100.00
60611;BME280;46439;51.164;13.572;2023-10-19T01:31:44;98710.11;;;10.81;100.00
60611;BME280;46439;51.164;13.572;2023-10-19T01:34:55;98709.95;;;10.83;100.00
60611;BME280;46439;51.164;13.572;2023-10-19T01:37:25;98711.17;;;10.85;100.00
60611;BME280;46439;51.164;13.572;2023-10-19T01:39:56;98707.61;;;10.90;100.00
60611;BME280;46439;51.164;13.572;2023-10-19T01:42:26;98701.61;;;10.94;100.00
60611;BME280;46439;51.164;13.572;2023-10-19T01:44:56;98697.66;;;10.96;100.00
60611;BME280;46439;51.164;13.572;2023-10-19T01:47:49;98691.55;;;10.97;100.00
60611;BME280;46439;51.164;13.572;2023-10-19T01:50:21;98687.69;;;10.81;100.00
60611;BME280;46439;51.164;13.572;2023-10-19T01:52:51;98682.77;;;10.76;100.00
60611;BME280;46439;51.164;13.572;2023-10-19T01:55:21;98672.75;;;10.75;100.00
60611;BME280;46439;51.164;13.572;2023-10-19T01:57:51;98674.73;;;10.69;100.00
60611;BME280;46439;51.164;13.572;2023-10-19T02:00:41;98670.79;;;10.64;100.00
60611;BME280;46439;51.164;13.572;2023-10-19T02:03:13;98670.40;;;10.64;100.00
60611;BME280;46439;51.164;13.572;2023-10-19T02:05:43;98670.33;;;10.66;100.00
60611;BME280;46439;51.164;13.572;2023-10-19T02:08:13;98664.09;;;10.69;100.00
60611;BME280;46439;51.164;13.572;2023-10-19T02:10:54;98654.71;;;10.69;100.00
60611;BME280;46439;51.164;13.572;2023-10-19T02:13:24;98648.77;;;10.81;100.00
60611;BME280;46439;51.164;13.572;2023-10-19T02:16:05;98644.14;;;11.00;100.00
60611;BME280;46439;51.164;13.572;2023-10-19T02:18:39;98640.20;;;11.06;100.00
60611;BME280;46439;51.164;13.572;2023-10-19T02:21:08;98635.76;;;11.08;100.00
60611;BME280;46439;51.164;13.572;2023-10-19T02:23:44;98635.01;;;11.10;100.00
60611;BME280;46439;51.164;13.572;2023-10-19T02:26:38;98630.96;;;11.12;100.00
60611;BME280;46439;51.164;13.572;2023-10-19T02:29:09;98624.88;;;11.07;100.00
60611;BME280;46439;51.164;13.572;2023-10-19T02:31:39;98621.27;;;10.99;100.00
60611;BME280;46439;51.164;13.572;2023-10-19T02:34:14;98612.67;;;10.96;100.00
60611;BME280;46439;51.164;13.572;2023-10-19T02:36:48;98605.62;;;10.93;100.00
60611;BME280;46439;51.164;13.572;2023-10-19T02:39:19;98601.23;;;10.90;100.00
60611;BME280;46439;51.164;13.572;2023-10-19T02:41:56;98592.17;;;10.88;100.00
60611;BME280;46439;51.164;13.572;2023-10-19T02:44:30;98584.78;;;10.89;100.00
60611;BME280;46439;51.164;13.572;2023-10-19T02:47:22;98572.45;;;10.90;100.00
60611;BME280;46439;51.164;13.572;2023-10-19T02:49:58;98566.96;;;10.91;100.00
60611;BME280;46439;51.164;13.572;2023-10-19T02:52:31;98563.74;;;10.94;100.00
60611;BME280;46439;51.164;13.572;2023-10-19T02:55:03;98560.55;;;11.09;100.00
60611;BME280;46439;51.164;13.572;2023-10-19T02:57:37;98555.80;;;11.19;100.00
60611;BME280;46439;51.164;13.572;2023-10-19T03:00:18;98553.23;;;11.26;100.00
60611;BME280;46439;51.164;13.572;2023-10-19T03:02:50;98551.27;;;11.27;100.00
60611;BME280;46439;51.164;13.572;2023-10-19T03:05:22;98549.80;;;11.28;100.00
60611;BME280;46439;51.164;13.572;2023-10-19T03:07:55;98548.41;;;11.29;100.00
60611;BME280;46439;51.164;13.572;2023-10-19T03:10:25;98549.63;;;11.29;100.00
60611;BME280;46439;51.164;13.572;2023-10-19T03:13:24;98547.51;;;11.29;100.00
60611;BME280;46439;51.164;13.572;2023-10-19T03:15:54;98544.69;;;11.29;100.00
60611;BME280;46439;51.164;13.572;2023-10-19T03:18:26;98539.84;;;11.31;100.00
60611;BME280;46439;51.164;13.572;2023-10-19T03:20:58;98535.38;;;11.30;100.00
60611;BME280;46439;51.164;13.572;2023-10-19T03:23:31;98533.63;;;11.30;100.00
60611;BME280;46439;51.164;13.572;2023-10-19T03:26:06;98536.04;;;11.30;100.00
60611;BME280;46439;51.164;13.572;2023-10-19T03:28:57;98531.75;;;11.30;100.00
60611;BME280;46439;51.164;13.572;2023-10-19T03:31:46;98535.40;;;11.32;100.00
60611;BME280;46439;51.164;13.572;2023-10-19T03:34:19;98536.90;;;11.37;100.00
60611;BME280;46439;51.164;13.572;2023-10-19T03:36:56;98533.09;;;11.41;100.00
60611;BME280;46439;51.164;13.572;2023-10-19T03:39:26;98531.19;;;11.45;100.00
60611;BME280;46439;51.164;13.572;2023-10-19T03:41:59;98531.65;;;11.45;100.00
60611;BME280;46439;51.164;13.572;2023-10-19T03:44:30;98530.26;;;11.48;100.00
60611;BME280;46439;51.164;13.572;2023-10-19T03:47:13;98530.18;;;11.51;100.00
60611;BME280;46439;51.164;13.572;2023-10-19T03:49:52;98528.87;;;11.49;100.00
60611;BME280;46439;51.164;13.572;2023-10-19T03:52:22;98525.77;;;11.47;100.00
60611;BME280;46439;51.164;13.572;2023-10-19T03:54:59;98520.88;;;11.47;100.00
60611;BME280;46439;51.164;13.572;2023-10-19T03:57:31;98519.66;;;11.42;100.00
60611;BME280;46439;51.164;13.572;2023-10-19T04:00:04;98520.91;;;11.45;100.00
60611;BME280;46439;51.164;13.572;2023-10-19T04:02:38;98518.73;;;11.43;100.00
60611;BME280;46439;51.164;13.572;2023-10-19T04:05:08;98519.00;;;11.35;100.00
60611;BME280;46439;51.164;13.572;2023-10-19T04:07:40;98519.44;;;11.31;100.00
60611;BME280;46439;51.164;13.572;2023-10-19T04:10:15;98516.45;;;11.31;100.00
60611;BME280;46439;51.164;13.572;2023-10-19T04:13:15;98511.67;;;11.30;100.00
60611;BME280;46439;51.164;13.572;2023-10-19T04:15:49;98509.39;;;11.24;100.00
60611;BME280;46439;51.164;13.572;2023-10-19T04:18:19;98500.79;;;11.19;100.00
60611;BME280;46439;51.164;13.572;2023-10-19T04:20:48;98491.36;;;11.14;100.00
60611;BME280;46439;51.164;13.572;2023-10-19T04:23:27;98482.90;;;11.10;100.00
60611;BME280;46439;51.164;13.572;2023-10-19T04:25:57;98477.77;;;11.01;100.00
60611;BME280;46439;51.164;13.572;2023-10-19T04:28:35;98478.26;;;10.89;100.00
60611;BME280;46439;51.164;13.572;2023-10-19T04:31:14;98484.45;;;10.81;100.00
60611;BME280;46439;51.164;13.572;2023-10-19T04:33:45;98490.36;;;10.79;100.00
60611;BME280;46439;51.164;13.572;2023-10-19T04:36:17;98494.15;;;10.68;100.00
60611;BME280;46439;51.164;13.572;2023-10-19T04:38:50;98494.00;;;10.55;100.00
60611;BME280;46439;51.164;13.572;2023-10-19T04:41:22;98499.34;;;10.58;100.00
60611;BME280;46439;51.164;13.572;2023-10-19T04:43:52;98503.80;;;10.66;100.00
60611;BME280;46439;51.164;13.572;2023-10-19T04:46:24;98502.31;;;10.61;100.00
60611;BME280;46439;51.164;13.572;2023-10-19T04:48:58;98500.10;;;10.55;100.00
60611;BME280;46439;51.164;13.572;2023-10-19T04:51:27;98488.21;;;10.50;100.00
60611;BME280;46439;51.164;13.572;2023-10-19T04:53:58;98492.77;;;10.44;100.00
60611;BME280;46439;51.164;13.572;2023-10-19T04:56:27;98495.42;;;10.42;100.00
60611;BME280;46439;51.164;13.572;2023-10-19T04:58:58;98488.88;;;10.39;100.00
60611;BME280;46439;51.164;13.572;2023-10-19T05:01:27;98483.38;;;10.29;100.00
60611;BME280;46439;51.164;13.572;2023-10-19T05:03:57;98476.05;;;10.22;100.00
60611;BME280;46439;51.164;13.572;2023-10-19T05:06:28;98470.52;;;10.14;100.00
60611;BME280;46439;51.164;13.572;2023-10-19T05:09:00;98477.06;;;10.02;100.00
60611;BME280;46439;51.164;13.572;2023-10-19T05:11:41;98477.70;;;9.93;100.00
60611;BME280;46439;51.164;13.572;2023-10-19T05:14:18;98464.95;;;9.87;100.00
60611;BME280;46439;51.164;13.572;2023-10-19T05:16:49;98471.71;;;9.86;100.00
60611;BME280;46439;51.164;13.572;2023-10-19T05:19:24;98473.05;;;9.86;100.00
60611;BME280;46439;51.164;13.572;2023-10-19T05:21:54;98468.78;;;9.84;100.00
60611;BME280;46439;51.164;13.572;2023-10-19T05:24:25;98467.91;;;9.85;100.00
60611;BME280;46439;51.164;13.572;2023-10-19T05:26:56;98471.63;;;9.87;100.00
60611;BME280;46439;51.164;13.572;2023-10-19T05:29:32;98469.64;;;9.85;100.00
60611;BME280;46439;51.164;13.572;2023-10-19T05:32:09;98469.20;;;9.79;100.00
60611;BME280;46439;51.164;13.572;2023-10-19T05:34:39;98466.87;;;9.74;100.00
60611;BME280;46439;51.164;13.572;2023-10-19T05:37:09;98460.09;;;9.71;100.00
60611;BME280;46439;51.164;13.572;2023-10-19T05:39:39;98441.20;;;9.69;100.00
60611;BME280;46439;51.164;13.572;2023-10-19T05:42:17;98440.57;;;9.67;100.00
60611;BME280;46439;51.164;13.572;2023-10-19T05:44:52;98459.30;;;9.65;100.00
60611;BME280;46439;51.164;13.572;2023-10-19T05:47:23;98473.36;;;9.60;100.00
60611;BME280;46439;51.164;13.572;2023-10-19T05:49:54;98461.43;;;9.56;100.00
60611;BME280;46439;51.164;13.572;2023-10-19T05:52:35;98468.52;;;9.51;100.00
60611;BME280;46439;51.164;13.572;2023-10-19T05:55:12;98476.81;;;9.55;100.00
60611;BME280;46439;51.164;13.572;2023-10-19T05:58:09;98474.08;;;9.57;100.00
60611;BME280;46439;51.164;13.572;2023-10-19T06:00:46;98473.24;;;9.58;100.00
60611;BME280;46439;51.164;13.572;2023-10-19T06:03:40;98467.16;;;9.52;100.00
60611;BME280;46439;51.164;13.572;2023-10-19T06:06:13;98468.15;;;9.51;100.00
60611;BME280;46439;51.164;13.572;2023-10-19T06:09:08;98458.45;;;9.49;100.00
60611;BME280;46439;51.164;13.572;2023-10-19T06:11:50;98462.14;;;9.49;100.00
60611;BME280;46439;51.164;13.572;2023-10-19T06:14:51;98467.99;;;9.53;100.00
60611;BME280;46439;51.164;13.572;2023-10-19T06:17:47;98464.84;;;9.49;100.00
60611;BME280;46439;51.164;13.572;2023-10-19T06:20:28;98468.98;;;9.52;100.00
60611;BME280;46439;51.164;13.572;2023-10-19T06:23:07;98469.73;;;9.53;100.00
60611;BME280;46439;51.164;13.572;2023-10-19T06:25:38;98470.77;;;9.56;100.00
60611;BME280;46439;51.164;13.572;2023-10-19T06:28:25;98467.44;;;9.58;100.00
60611;BME280;46439;51.164;13.572;2023-10-19T06:31:04;98463.95;;;9.58;100.00
60611;BME280;46439;51.164;13.572;2023-10-19T06:33:43;98463.88;;;9.55;100.00
60611;BME280;46439;51.164;13.572;2023-10-19T06:36:15;98465.20;;;9.58;100.00
60611;BME280;46439;51.164;13.572;2023-10-19T06:38:45;98467.81;;;9.59;100.00
60611;BME280;46439;51.164;13.572;2023-10-19T06:41:16;98461.93;;;9.55;100.00
60611;BME280;46439;51.164;13.572;2023-10-19T06:43:49;98465.63;;;9.53;100.00
60611;BME280;46439;51.164;13.572;2023-10-19T06:46:25;98466.34;;;9.48;100.00
60611;BME280;46439;51.164;13.572;2023-10-19T06:48:59;98472.66;;;9.49;100.00
60611;BME280;46439;51.164;13.572;2023-10-19T06:51:38;98474.62;;;9.46;100.00
60611;BME280;46439;51.164;13.572;2023-10-19T06:54:15;98469.44;;;9.47;100.00
60611;BME280;46439;51.164;13.572;2023-10-19T06:56:46;98473.86;;;9.50;100.00
60611;BME280;46439;51.164;13.572;2023-10-19T06:59:18;98469.06;;;9.49;100.00
60611;BME280;46439;51.164;13.572;2023-10-19T07:01:54;98473.41;;;9.54;100.00
60611;BME280;46439;51.164;13.572;2023-10-19T07:04:32;98471.88;;;9.52;100.00
60611;BME280;46439;51.164;13.572;2023-10-19T07:07:02;98469.44;;;9.51;100.00
60611;BME280;46439;51.164;13.572;2023-10-19T07:09:34;98467.12;;;9.49;100.00
60611;BME280;46439;51.164;13.572;2023-10-19T07:12:18;98469.23;;;9.48;100.00
60611;BME280;46439;51.164;13.572;2023-10-19T07:14:52;98466.79;;;9.48;100.00
60611;BME280;46439;51.164;13.572;2023-10-19T07:17:21;98466.66;;;9.45;100.00
60611;BME280;46439;51.164;13.572;2023-10-19T07:20:04;98478.17;;;9.45;100.00
60611;BME280;46439;51.164;13.572;2023-10-19T07:22:37;98472.50;;;9.40;100.00
60611;BME280;46439;51.164;13.572;2023-10-19T07:25:20;98476.69;;;9.41;100.00
60611;BME280;46439;51.164;13.572;2023-10-19T07:27:53;98480.38;;;9.45;100.00
60611;BME280;46439;51.164;13.572;2023-10-19T07:30:29;98480.96;;;9.47;100.00
60611;BME280;46439;51.164;13.572;2023-10-19T07:33:02;98472.35;;;9.52;100.00
60611;BME280;46439;51.164;13.572;2023-10-19T07:35:38;98471.39;;;9.51;100.00
60611;BME280;46439;51.164;13.572;2023-10-19T07:38:13;98468.23;;;9.51;100.00
60611;BME280;46439;51.164;13.572;2023-10-19T07:40:53;98471.86;;;9.58;100.00
60611;BME280;46439;51.164;13.572;2023-10-19T07:43:36;98471.02;;;9.62;100.00
60611;BME280;46439;51.164;13.572;2023-10-19T07:46:18;98461.06;;;9.57;100.00
60611;BME280;46439;51.164;13.572;2023-10-19T07:49:17;98462.27;;;9.58;100.00
60611;BME280;46439;51.164;13.572;2023-10-19T07:56:14;98461.54;;;9.71;100.00
60611;BME280;46439;51.164;13.572;2023-10-19T07:58:46;98460.00;;;9.70;100.00
60611;BME280;46439;51.164;13.572;2023-10-19T08:08:56;98453.23;;;9.64;100.00
60611;BME280;46439;51.164;13.572;2023-10-19T08:15:15;98449.89;;;9.71;100.00
60611;BME280;46439;51.164;13.572;2023-10-19T08:17:46;98445.02;;;9.73;100.00
60611;BME280;46439;51.164;13.572;2023-10-19T08:20:23;98438.48;;;9.77;100.00
60611;BME280;46439;51.164;13.572;2023-10-19T08:22:52;98433.29;;;9.79;100.00
60611;BME280;46439;51.164;13.572;2023-10-19T08:25:21;98429.17;;;9.83;100.00
60611;BME280;46439;51.164;13.572;2023-10-19T08:27:50;98423.81;;;9.87;100.00
60611;BME280;46439;51.164;13.572;2023-10-19T08:30:20;98415.39;;;9.89;100.00
60611;BME280;46439;51.164;13.572;2023-10-19T08:32:50;98411.60;;;9.94;100.00
60611;BME280;46439;51.164;13.572;2023-10-19T08:35:20;98406.67;;;9.91;100.00
60611;BME280;46439;51.164;13.572;2023-10-19T08:37:53;98402.73;;;9.90;100.00
60611;BME280;46439;51.164;13.572;2023-10-19T08:40:22;98400.98;;;9.93;100.00
60611;BME280;46439;51.164;13.572;2023-10-19T08:42:52;98401.55;;;9.98;100.00
60611;BME280;46439;51.164;13.572;2023-10-19T08:45:22;98397.68;;;10.12;100.00
60611;BME280;46439;51.164;13.572;2023-10-19T08:47:59;98396.61;;;10.26;100.00
60611;BME280;46439;51.164;13.572;2023-10-19T08:50:30;98404.24;;;10.35;100.00
60611;BME280;46439;51.164;13.572;2023-10-19T08:53:00;98401.26;;;10.49;100.00
60611;BME280;46439;51.164;13.572;2023-10-19T08:55:32;98395.94;;;10.64;100.00
60611;BME280;46439;51.164;13.572;2023-10-19T08:58:04;98393.94;;;10.89;100.00
60611;BME280;46439;51.164;13.572;2023-10-19T09:00:46;98388.80;;;11.05;100.00
60611;BME280;46439;51.164;13.572;2023-10-19T09:03:19;98385.26;;;11.01;100.00
60611;BME280;46439;51.164;13.572;2023-10-19T09:05:50;98379.77;;;10.94;100.00
60611;BME280;46439;51.164;13.572;2023-10-19T09:08:19;98376.46;;;10.89;100.00
60611;BME280;46439;51.164;13.572;2023-10-19T09:10:51;98369.81;;;10.84;100.00
60611;BME280;46439;51.164;13.572;2023-10-19T09:13:24;98367.36;;;10.77;100.00
60611;BME280;46439;51.164;13.572;2023-10-19T09:15:53;98363.34;;;10.72;100.00
60611;BME280;46439;51.164;13.572;2023-10-19T09:18:23;98361.70;;;10.69;100.00
60611;BME280;46439;51.164;13.572;2023-10-19T09:20:54;98358.88;;;10.65;100.00
60611;BME280;46439;51.164;13.572;2023-10-19T09:23:50;98355.09;;;10.65;100.00
60611;BME280;46439;51.164;13.572;2023-10-19T09:26:19;98360.53;;;10.64;100.00
60611;BME280;46439;51.164;13.572;2023-10-19T09:28:50;98361.39;;;10.67;100.00
60611;BME280;46439;51.164;13.572;2023-10-19T09:31:20;98357.77;;;10.72;100.00
60611;BME280;46439;51.164;13.572;2023-10-19T09:33:50;98362.05;;;10.77;100.00
60611;BME280;46439;51.164;13.572;2023-10-19T09:36:18;98360.08;;;10.80;100.00
60611;BME280;46439;51.164;13.572;2023-10-19T09:38:50;98362.90;;;10.87;100.00
60611;BME280;46439;51.164;13.572;2023-10-19T09:41:21;98365.07;;;10.96;100.00
60611;BME280;46439;51.164;13.572;2023-10-19T09:43:50;98359.48;;;10.98;100.00
60611;BME280;46439;51.164;13.572;2023-10-19T09:46:24;98355.88;;;10.95;100.00
60611;BME280;46439;51.164;13.572;2023-10-19T09:48:54;98352.16;;;10.99;100.00
60611;BME280;46439;51.164;13.572;2023-10-19T09:51:24;98340.67;;;11.06;100.00
60611;BME280;46439;51.164;13.572;2023-10-19T09:54:00;98328.71;;;11.10;100.00
60611;BME280;46439;51.164;13.572;2023-10-19T09:56:34;98325.11;;;11.18;100.00
60611;BME280;46439;51.164;13.572;2023-10-19T10:02:10;98327.33;;;11.29;100.00
60611;BME280;46439;51.164;13.572;2023-10-19T10:04:42;98327.99;;;11.33;100.00
60611;BME280;46439;51.164;13.572;2023-10-19T10:07:13;98321.98;;;11.36;100.00
60611;BME280;46439;51.164;13.572;2023-10-19T10:09:42;98321.54;;;11.39;100.00
60611;BME280;46439;51.164;13.572;2023-10-19T10:12:20;98322.15;;;11.43;100.00
60611;BME280;46439;51.164;13.572;2023-10-19T10:14:56;98321.45;;;11.51;100.00
60611;BME280;46439;51.164;13.572;2023-10-19T10:17:27;98319.10;;;11.59;100.00
60611;BME280;46439;51.164;13.572;2023-10-19T10:20:28;98319.03;;;11.62;100.00
60611;BME280;46439;51.164;13.572;2023-10-19T10:23:17;98313.70;;;11.68;100.00
60611;BME280;46439;51.164;13.572;2023-10-19T10:25:50;98302.99;;;11.72;100.00
60611;BME280;46439;51.164;13.572;2023-10-19T10:28:21;98296.84;;;11.74;100.00
60611;BME280;46439;51.164;13.572;2023-10-19T10:31:18;98292.04;;;11.77;100.00
60611;BME280;46439;51.164;13.572;2023-10-19T10:33:50;98289.25;;;11.83;100.00
60611;BME280;46439;51.164;13.572;2023-10-19T10:36:20;98289.19;;;11.87;100.00
60611;BME280;46439;51.164;13.572;2023-10-19T10:38:50;98286.25;;;11.86;100.00
60611;BME280;46439;51.164;13.572;2023-10-19T10:41:25;98278.67;;;11.84;100.00
60611;BME280;46439;51.164;13.572;2023-10-19T10:43:58;98270.15;;;11.87;100.00
60611;BME280;46439;51.164;13.572;2023-10-19T10:46:27;98266.52;;;11.93;100.00
60611;BME280;46439;51.164;13.572;2023-10-19T10:49:00;98264.04;;;11.96;100.00
60611;BME280;46439;51.164;13.572;2023-10-19T10:51:31;98267.26;;;11.95;100.00
60611;BME280;46439;51.164;13.572;2023-10-19T10:54:00;98267.60;;;12.05;100.00
60611;BME280;46439;51.164;13.572;2023-10-19T10:56:29;98274.58;;;12.16;100.00
60611;BME280;46439;51.164;13.572;2023-10-19T10:58:57;98276.76;;;12.23;100.00
60611;BME280;46439;51.164;13.572;2023-10-19T11:01:33;98272.27;;;12.29;100.00
60611;BME280;46439;51.164;13.572;2023-10-19T11:04:09;98263.34;;;12.35;100.00
60611;BME280;46439;51.164;13.572;2023-10-19T11:06:52;98253.02;;;12.40;100.00
60611;BME280;46439;51.164;13.572;2023-10-19T11:09:23;98249.45;;;12.47;100.00
60611;BME280;46439;51.164;13.572;2023-10-19T11:11:52;98243.52;;;12.54;100.00
60611;BME280;46439;51.164;13.572;2023-10-19T11:14:22;98235.55;;;12.57;100.00
60611;BME280;46439;51.164;13.572;2023-10-19T11:16:53;98239.64;;;12.56;100.00
60611;BME280;46439;51.164;13.572;2023-10-19T11:19:21;98237.50;;;12.57;100.00
60611;BME280;46439;51.164;13.572;2023-10-19T11:22:11;98233.50;;;12.59;100.00
60611;BME280;46439;51.164;13.572;2023-10-19T11:24:40;98230.61;;;12.63;100.00
60611;BME280;46439;51.164;13.572;2023-10-19T11:27:09;98229.23;;;12.68;100.00
60611;BME280;46439;51.164;13.572;2023-10-19T11:29:52;98231.89;;;12.74;100.00
60611;BME280;46439;51.164;13.572;2023-10-19T11:32:21;98233.86;;;12.76;100.00
60611;BME280;46439;51.164;13.572;2023-10-19T11:34:52;98229.52;;;12.76;100.00
60611;BME280;46439;51.164;13.572;2023-10-19T11:37:21;98222.99;;;12.75;100.00
60611;BME280;46439;51.164;13.572;2023-10-19T11:39:49;98214.52;;;12.76;100.00
60611;BME280;46439;51.164;13.572;2023-10-19T11:42:18;98216.31;;;12.76;100.00
60611;BME280;46439;51.164;13.572;2023-10-19T11:44:48;98217.17;;;12.77;100.00
60611;BME280;46439;51.164;13.572;2023-10-19T11:47:17;98226.09;;;12.78;100.00
60611;BME280;46439;51.164;13.572;2023-10-19T11:49:45;98228.30;;;12.82;100.00
60611;BME280;46439;51.164;13.572;2023-10-19T11:52:14;98229.66;;;12.87;100.00
60611;BME280;46439;51.164;13.572;2023-10-19T11:54:44;98225.14;;;12.91;100.00
60611;BME280;46439;51.164;13.572;2023-10-19T11:57:13;98227.48;;;12.94;100.00
60611;BME280;46439;51.164;13.572;2023-10-19T11:59:41;98225.48;;;12.99;100.00
60611;BME280;46439;51.164;13.572;2023-10-19T12:02:10;98219.09;;;13.02;100.00
60611;BME280;46439;51.164;13.572;2023-10-19T12:04:39;98218.27;;;13.05;100.00
60611;BME280;46439;51.164;13.572;2023-10-19T12:07:08;98216.66;;;13.07;100.00
60611;BME280;46439;51.164;13.572;2023-10-19T12:09:38;98216.71;;;13.04;100.00
60611;BME280;46439;51.164;13.572;2023-10-19T12:12:09;98220.20;;;13.00;100.00
60611;BME280;46439;51.164;13.572;2023-10-19T12:14:38;98214.74;;;12.98;100.00
60611;BME280;46439;51.164;13.572;2023-10-19T12:17:07;98211.65;;;12.96;100.00
60611;BME280;46439;51.164;13.572;2023-10-19T12:19:36;98216.42;;;12.98;100.00
60611;BME280;46439;51.164;13.572;2023-10-19T12:22:04;98215.71;;;12.98;100.00
60611;BME280;46439;51.164;13.572;2023-10-19T12:24:33;98206.64;;;12.97;100.00
60611;BME280;46439;51.164;13.572;2023-10-19T12:27:02;98204.89;;;12.97;100.00
60611;BME280;46439;51.164;13.572;2023-10-19T12:29:31;98198.08;;;12.97;100.00
60611;BME280;46439;51.164;13.572;2023-10-19T12:32:00;98195.49;;;13.00;100.00
60611;BME280;46439;51.164;13.572;2023-10-19T12:34:29;98196.43;;;13.03;100.00
60611;BME280;46439;51.164;13.572;2023-10-19T12:36:58;98191.95;;;13.04;100.00
60611;BME280;46439;51.164;13.572;2023-10-19T12:39:27;98192.52;;;13.08;100.00
60611;BME280;46439;51.164;13.572;2023-10-19T12:42:11;98193.98;;;13.14;100.00
60611;BME280;46439;51.164;13.572;2023-10-19T12:44:40;98194.23;;;13.12;100.00
60611;BME280;46439;51.164;13.572;2023-10-19T12:47:09;98190.55;;;13.13;100.00
60611;BME280;46439;51.164;13.572;2023-10-19T12:49:41;98191.00;;;13.15;100.00
60611;BME280;46439;51.164;13.572;2023-10-19T12:52:10;98192.16;;;13.17;100.00
60611;BME280;46439;51.164;13.572;2023-10-19T12:54:39;98189.45;;;13.17;100.00
60611;BME280;46439;51.164;13.572;2023-10-19T12:57:08;98184.03;;;13.22;100.00
60611;BME280;46439;51.164;13.572;2023-10-19T12:59:38;98180.02;;;13.29;100.00
60611;BME280;46439;51.164;13.572;2023-10-19T13:02:06;98173.45;;;13.33;100.00
60611;BME280;46439;51.164;13.572;2023-10-19T13:04:38;98167.42;;;13.38;100.00
60611;BME280;46439;51.164;13.572;2023-10-19T13:07:06;98166.09;;;13.39;100.00
60611;BME280;46439;51.164;13.572;2023-10-19T13:09:35;98166.14;;;13.42;100.00
60611;BME280;46439;51.164;13.572;2023-10-19T13:12:05;98162.88;;;13.44;100.00
60611;BME280;46439;51.164;13.572;2023-10-19T13:14:36;98158.61;;;13.47;100.00
60611;BME280;46439;51.164;13.572;2023-10-19T13:17:05;98157.86;;;13.56;100.00
60611;BME280;46439;51.164;13.572;2023-10-19T13:19:33;98156.64;;;13.63;100.00
60611;BME280;46439;51.164;13.572;2023-10-19T13:22:05;98152.67;;;13.72;100.00
60611;BME280;46439;51.164;13.572;2023-10-19T13:24:35;98148.48;;;13.77;100.00
60611;BME280;46439;51.164;13.572;2023-10-19T13:27:10;98142.58;;;13.81;100.00
60611;BME280;46439;51.164;13.572;2023-10-19T13:29:38;98134.91;;;13.86;100.00
60611;BME280;46439;51.164;13.572;2023-10-19T13:32:09;98130.23;;;13.92;100.00
60611;BME280;46439;51.164;13.572;2023-10-19T13:34:38;98134.69;;;13.95;100.00
60611;BME280;46439;51.164;13.572;2023-10-19T13:37:08;98135.19;;;14.02;100.00